Time;durP1;ratioP1;P1;durP2;ratioP2;P2;SDS_P1;SDS_P2;PMS_P1;PMS_P2;Temp;Humidity;BMP_temperature;BMP_pressure;BME280_temperature;BME280_humidity;BME280_pressure;Samples;Min_cycle;Max_cycle;Signal;HPM_P1;HPM_P2
2022/05/16 00:00:48;;;;;;;6.88;4.93;;;;;;;14.58;87.48;95973.56;5020655;28;20069;-60
2022/05/16 00:03:13;;;;;;;6.85;4.70;;;;;;;14.52;87.32;95968.91;5022191;28;20493;-59
2022/05/16 00:05:39;;;;;;;5.25;4.85;;;;;;;14.51;87.32;95967.25;5022417;28;20026;-59
2022/05/16 00:08:05;;;;;;;5.82;4.68;;;;;;;14.51;87.58;95977.00;5020853;28;20026;-59
2022/05/16 00:10:31;;;;;;;6.03;5.13;;;;;;;14.44;88.44;95971.50;5021179;28;20198;-59
2022/05/16 00:12:56;;;;;;;6.78;5.10;;;;;;;14.32;89.08;95973.59;5022013;28;20135;-59
2022/05/16 00:15:24;;;;;;;5.30;4.70;;;;;;;14.13;90.30;95970.19;5022175;28;20087;-59
2022/05/16 00:17:50;;;;;;;5.88;5.28;;;;;;;14.19;89.58;95971.38;5021704;28;20112;-59
2022/05/16 00:20:15;;;;;;;6.97;4.70;;;;;;;14.16;89.67;95983.16;5017135;28;20609;-59
2022/05/16 00:22:41;;;;;;;6.63;5.18;;;;;;;14.11;89.64;95974.00;5020176;28;20033;-59
2022/05/16 00:25:08;;;;;;;5.57;5.18;;;;;;;14.13;89.49;95972.03;5023428;28;20025;-59
2022/05/16 00:27:34;;;;;;;7.10;5.28;;;;;;;14.16;89.93;95979.66;5021030;28;20393;-59
2022/05/16 00:30:05;;;;;;;5.88;5.10;;;;;;;14.16;89.43;95975.19;5019939;28;20029;-59
2022/05/16 00:32:31;;;;;;;5.78;5.28;;;;;;;14.21;89.23;95980.00;5021336;28;20380;-59
2022/05/16 00:34:56;;;;;;;5.97;5.35;;;;;;;14.21;89.46;95974.72;5020967;28;20080;-59
2022/05/16 00:37:21;;;;;;;5.80;5.18;;;;;;;14.22;89.25;95976.38;5018930;28;20029;-59
2022/05/16 00:39:47;;;;;;;6.18;5.22;;;;;;;14.22;89.83;95980.84;5013186;28;20042;-59
2022/05/16 00:42:13;;;;;;;5.85;5.03;;;;;;;14.20;89.78;95981.00;5021539;28;20116;-59
2022/05/16 00:44:39;;;;;;;6.68;5.15;;;;;;;14.15;90.44;95989.44;5020334;28;20032;-60
2022/05/16 00:47:05;;;;;;;6.13;5.00;;;;;;;14.17;89.28;95989.25;5014325;28;20108;-60
2022/05/16 00:49:35;;;;;;;5.45;5.05;;;;;;;14.13;89.85;95986.09;5021134;28;20031;-59
2022/05/16 00:52:05;;;;;;;5.60;4.97;;;;;;;14.17;88.87;95982.16;5019524;28;20030;-59
2022/05/16 00:54:34;;;;;;;4.75;4.45;;;;;;;14.12;90.37;95975.66;5021141;28;20113;-59
2022/05/16 00:57:12;;;;;;;5.50;5.10;;;;;;;14.06;90.17;95969.16;5021085;28;20021;-59
2022/05/16 00:59:52;;;;;;;6.20;5.60;;;;;;;14.04;89.68;95972.00;5018465;28;20136;-59
2022/05/16 01:05:04;;;;;;;11.13;4.43;;;;;;;14.03;88.44;95969.50;5016587;28;20044;-59
2022/05/16 01:07:32;;;;;;;5.90;5.40;;;;;;;14.00;89.04;95970.63;5020794;28;20036;-59
2022/05/16 01:09:58;;;;;;;5.53;5.03;;;;;;;13.98;89.17;95964.66;5016840;28;20030;-60
2022/05/16 01:12:30;;;;;;;5.00;4.60;;;;;;;13.92;89.73;95967.94;5020843;28;20033;-60
2022/05/16 01:14:57;;;;;;;4.90;4.55;;;;;;;13.86;89.94;95973.84;5022731;28;20036;-59
2022/05/16 01:17:23;;;;;;;13.50;5.38;;;;;;;13.82;89.91;95967.22;5017289;28;20235;-59
2022/05/16 01:19:50;;;;;;;5.63;4.68;;;;;;;13.78;89.94;95969.34;5019587;28;20501;-59
2022/05/16 01:22:24;;;;;;;5.15;4.55;;;;;;;13.81;90.21;95974.31;5018293;28;20033;-59
2022/05/16 01:24:53;;;;;;;6.07;4.97;;;;;;;13.74;91.09;95976.75;5024151;28;20061;-59
2022/05/16 01:27:19;;;;;;;5.50;4.93;;;;;;;13.75;90.69;95962.53;5019146;28;20116;-59
2022/05/16 01:29:45;;;;;;;5.20;4.80;;;;;;;13.77;90.62;95958.91;5019908;28;20547;-59
2022/05/16 01:32:10;;;;;;;4.93;4.53;;;;;;;13.83;89.92;95958.31;5020535;28;20037;-59
2022/05/16 01:34:37;;;;;;;12.38;5.13;;;;;;;13.88;89.57;95961.31;5020886;28;20022;-59
2022/05/16 01:37:03;;;;;;;5.40;4.88;;;;;;;13.91;89.24;95966.28;5019081;28;20408;-59
2022/05/16 01:39:29;;;;;;;5.55;4.95;;;;;;;13.96;88.63;95971.13;5014873;28;20127;-60
2022/05/16 01:41:54;;;;;;;5.10;4.70;;;;;;;13.98;88.51;95962.00;5026133;28;20544;-60
2022/05/16 01:44:19;;;;;;;5.45;4.93;;;;;;;14.04;88.22;95968.50;5020687;28;20042;-60
2022/05/16 01:46:45;;;;;;;5.43;4.80;;;;;;;14.03;88.57;95967.66;5020256;28;20030;-60
2022/05/16 01:49:11;;;;;;;6.78;5.00;;;;;;;14.00;89.30;95967.97;5023125;28;20030;-60
2022/05/16 01:51:38;;;;;;;5.50;5.00;;;;;;;13.94;89.36;95965.16;5019832;28;20092;-59
2022/05/16 01:54:04;;;;;;;4.78;4.38;;;;;;;13.90;90.13;95962.78;5020396;28;20026;-59
2022/05/16 01:56:34;;;;;;;4.97;4.47;;;;;;;13.87;91.17;95962.28;5016225;28;20457;-59
2022/05/16 01:59:01;;;;;;;7.40;5.18;;;;;;;13.85;91.19;95964.25;5016298;28;20025;-60
2022/05/16 02:01:27;;;;;;;7.90;5.03;;;;;;;13.85;91.00;95961.63;5020562;28;20021;-60
2022/05/16 02:03:53;;;;;;;5.40;4.90;;;;;;;13.86;92.03;95966.75;5019844;28;20037;-59
2022/05/16 02:06:18;;;;;;;9.30;5.50;;;;;;;13.86;91.21;95961.44;5019525;28;20026;-60
2022/05/16 02:08:44;;;;;;;7.10;5.38;;;;;;;13.86;91.43;95957.97;5020031;28;20034;-59
2022/05/16 02:11:10;;;;;;;7.82;4.95;;;;;;;13.85;91.48;95953.69;5012010;28;20033;-60
2022/05/16 02:13:38;;;;;;;4.78;4.30;;;;;;;13.81;91.63;95950.50;5020310;28;20037;-60
2022/05/16 02:16:04;;;;;;;4.82;4.32;;;;;;;13.79;91.27;95946.34;5018068;28;20056;-60
2022/05/16 02:18:29;;;;;;;5.75;4.65;;;;;;;13.77;90.91;95950.97;5020588;28;20034;-60
2022/05/16 02:24:38;;;;;;;5.68;4.65;;;;;;;13.77;91.13;95957.09;5020664;28;20042;-60
2022/05/16 02:26:27;;;;;;;5.05;4.65;;;;;;;13.74;91.17;95968.00;4995825;28;19917;-60
2022/05/16 02:28:53;;;;;;;5.40;4.47;;;;;;;14.15;88.70;95978.00;5022339;28;20512;-60
2022/05/16 02:31:20;;;;;;;9.60;5.43;;;;;;;14.04;89.14;95973.78;5019095;28;20036;-60
2022/05/16 02:33:48;;;;;;;10.85;5.82;;;;;;;13.97;90.33;95976.22;5018331;28;20022;-60
2022/05/16 02:36:15;;;;;;;6.07;5.47;;;;;;;13.90;91.75;95991.91;5015409;28;20022;-60
2022/05/16 02:38:42;;;;;;;7.97;5.05;;;;;;;13.87;92.10;95984.28;5016509;28;20026;-60
2022/05/16 02:41:07;;;;;;;6.68;5.55;;;;;;;13.86;92.19;95985.25;5017037;28;20022;-60
2022/05/16 02:43:33;;;;;;;4.93;4.45;;;;;;;13.85;92.34;95988.09;5021930;28;20040;-60
2022/05/16 02:45:58;;;;;;;5.13;4.50;;;;;;;13.85;91.37;95993.38;5019672;28;20018;-60
2022/05/16 02:48:24;;;;;;;6.55;4.38;;;;;;;13.82;91.28;95986.56;5022866;28;20392;-60
2022/05/16 02:50:49;;;;;;;7.15;4.93;;;;;;;13.81;91.64;95995.50;5019792;28;20096;-60
2022/05/16 02:53:14;;;;;;;5.80;4.97;;;;;;;13.76;92.55;96003.06;5019965;28;20032;-60
2022/05/16 02:55:40;;;;;;;8.25;6.45;;;;;;;13.75;92.64;96010.16;5020125;28;20513;-59
2022/05/16 02:58:09;;;;;;;8.23;4.72;;;;;;;13.77;91.79;96012.66;5015839;28;20025;-60
2022/05/16 03:00:36;;;;;;;6.22;4.82;;;;;;;13.83;90.79;96005.94;5017437;28;20046;-60
2022/05/16 03:03:01;;;;;;;4.93;4.43;;;;;;;13.82;90.27;96009.56;5023666;28;20026;-59
2022/05/16 03:05:26;;;;;;;4.93;4.53;;;;;;;13.75;90.91;96009.34;5023522;28;20112;-60
2022/05/16 03:07:52;;;;;;;5.97;5.47;;;;;;;13.68;91.34;96011.75;5022352;28;20026;-59
2022/05/16 03:10:18;;;;;;;6.22;4.80;;;;;;;13.56;92.23;96012.97;5022182;28;20121;-60
2022/05/16 03:12:45;;;;;;;5.15;4.38;;;;;;;13.46;91.91;96013.91;5023655;28;20489;-59
2022/05/16 03:15:13;;;;;;;6.25;4.85;;;;;;;13.43;91.94;96027.44;5023357;28;20083;-59
2022/05/16 03:17:40;;;;;;;5.88;5.30;;;;;;;13.40;92.23;96018.94;5019572;28;20025;-59
2022/05/16 03:20:10;;;;;;;6.47;5.07;;;;;;;13.37;92.76;96022.69;5016134;28;20026;-60
2022/05/16 03:22:36;;;;;;;6.70;5.03;;;;;;;13.30;92.60;96016.38;5022260;28;20038;-60
2022/05/16 03:25:02;;;;;;;9.25;5.20;;;;;;;13.32;92.32;96017.03;5021334;28;20071;-60
2022/05/16 03:27:28;;;;;;;5.85;5.10;;;;;;;13.33;92.57;96021.34;5017273;28;20049;-59
2022/05/16 03:29:53;;;;;;;5.32;4.72;;;;;;;13.31;92.88;96018.03;5021958;28;20033;-60
2022/05/16 03:32:18;;;;;;;6.00;5.00;;;;;;;13.25;93.09;96016.00;5022204;28;20080;-59
2022/05/16 03:34:44;;;;;;;6.57;4.53;;;;;;;13.28;92.30;96013.88;5022833;28;20080;-60
2022/05/16 03:37:09;;;;;;;5.07;4.60;;;;;;;13.43;90.98;96016.84;5023049;28;20396;-60
2022/05/16 03:42:19;;;;;;;9.27;5.93;;;;;;;13.39;91.40;96015.47;5026138;28;20099;-60
2022/05/16 03:44:45;;;;;;;6.22;4.88;;;;;;;13.35;92.62;96019.38;5025328;28;20477;-59
2022/05/16 03:47:10;;;;;;;9.82;5.25;;;;;;;13.31;92.18;96015.38;5017436;28;20054;-59
2022/05/16 03:49:35;;;;;;;5.47;4.45;;;;;;;13.31;92.08;96018.03;5028988;28;20062;-60
2022/05/16 03:52:02;;;;;;;11.57;5.20;;;;;;;13.35;91.49;96018.56;5022802;28;20037;-59
2022/05/16 03:54:27;;;;;;;5.38;4.88;;;;;;;13.28;91.60;96018.34;5031575;28;20014;-59
2022/05/16 03:56:53;;;;;;;5.53;5.03;;;;;;;13.20;92.58;96015.63;5029829;28;20040;-59
2022/05/16 03:59:19;;;;;;;6.45;4.70;;;;;;;13.12;92.01;96027.75;5031139;28;20048;-59
2022/05/16 04:01:44;;;;;;;5.00;4.65;;;;;;;13.03;92.28;96015.44;5031476;28;20026;-59
2022/05/16 04:04:10;;;;;;;10.23;5.40;;;;;;;13.13;91.98;96007.44;5031273;28;20052;-59
2022/05/16 04:06:37;;;;;;;7.80;5.35;;;;;;;13.22;91.14;96011.81;5031372;28;20108;-59
2022/05/16 04:09:03;;;;;;;6.47;5.07;;;;;;;13.22;91.97;96022.41;5031239;28;20029;-59
2022/05/16 04:11:29;;;;;;;5.32;4.93;;;;;;;13.19;91.51;96020.06;5030700;28;20116;-59
2022/05/16 04:13:55;;;;;;;6.97;4.80;;;;;;;13.17;91.54;96036.09;5031378;28;20096;-59
2022/05/16 04:16:21;;;;;;;5.15;4.65;;;;;;;13.23;91.01;96041.75;5030971;28;20072;-59
2022/05/16 04:18:47;;;;;;;5.70;4.57;;;;;;;13.26;90.50;96041.44;5031025;28;20037;-59
2022/05/16 04:21:13;;;;;;;6.35;5.05;;;;;;;13.31;91.07;96050.59;5030920;28;20021;-59
2022/05/16 04:23:39;;;;;;;5.28;4.97;;;;;;;13.38;91.52;96056.13;5030692;28;20039;-59
2022/05/16 04:26:05;;;;;;;8.13;4.65;;;;;;;13.40;91.11;96066.53;5030712;28;20033;-59
2022/05/16 04:28:30;;;;;;;5.65;4.88;;;;;;;13.48;91.09;96073.75;5030497;28;20037;-60
2022/05/16 04:30:55;;;;;;;10.82;5.50;;;;;;;13.51;90.65;96070.81;5030797;28;20029;-59
2022/05/16 04:33:21;;;;;;;4.82;4.40;;;;;;;13.55;90.37;96072.16;5030582;28;20553;-59
2022/05/16 04:35:46;;;;;;;5.90;4.57;;;;;;;13.63;89.57;96080.19;5030628;28;20018;-59
2022/05/16 04:38:12;;;;;;;5.13;4.47;;;;;;;13.69;89.40;96084.88;5030486;28;20022;-59
2022/05/16 04:42:40;;;;;;;8.25;5.10;;;;;;;13.83;88.48;96096.72;5030512;28;20477;-59
2022/05/16 04:43:25;;;;;;;9.43;4.95;;;;;;;13.89;88.00;96095.28;5022569;28;20045;-59
2022/05/16 04:45:51;;;;;;;6.22;4.45;;;;;;;13.99;87.62;96092.56;5030339;28;20028;-59
2022/05/16 04:48:16;;;;;;;5.43;4.68;;;;;;;13.87;88.61;96095.44;5029835;28;20025;-59
2022/05/16 04:50:42;;;;;;;8.85;5.10;;;;;;;13.86;88.92;96108.81;5030166;28;20033;-59
2022/05/16 04:53:07;;;;;;;6.43;4.65;;;;;;;13.78;89.23;96111.38;5030192;28;20030;-59
2022/05/16 04:55:33;;;;;;;7.03;5.10;;;;;;;13.68;89.94;96120.25;5026985;28;20026;-59
2022/05/16 04:57:58;;;;;;;8.40;4.57;;;;;;;13.71;89.21;96119.94;5030123;28;20116;-59
2022/05/16 05:00:25;;;;;;;5.72;5.00;;;;;;;13.75;88.90;96131.88;5027401;28;20048;-59
2022/05/16 05:02:51;;;;;;;6.55;4.70;;;;;;;13.67;89.26;96142.41;5025777;28;20445;-59
2022/05/16 05:05:17;;;;;;;9.20;5.32;;;;;;;13.65;90.07;96144.34;5029914;28;20028;-59
2022/05/16 05:07:43;;;;;;;5.28;4.70;;;;;;;13.64;90.50;96153.28;5025779;28;20022;-59
2022/05/16 05:15:40;;;;;;;10.10;5.78;;;;;;;13.69;90.54;96164.25;5027081;28;20044;-59
2022/05/16 05:18:06;;;;;;;4.93;4.50;;;;;;;13.75;89.96;96170.75;5026365;28;20022;-59
2022/05/16 05:20:32;;;;;;;8.98;4.40;;;;;;;13.85;89.72;96178.63;5025537;28;20030;-58
2022/05/16 05:23:00;;;;;;;6.68;4.70;;;;;;;13.99;89.49;96182.56;5020233;28;20099;-59
2022/05/16 05:25:26;;;;;;;5.65;4.32;;;;;;;14.12;88.92;96187.47;5028460;28;20033;-58
2022/05/16 05:27:52;;;;;;;8.15;5.97;;;;;;;14.22;88.06;96195.34;5029654;28;20555;-58
2022/05/16 05:30:24;;;;;;;6.50;4.60;;;;;;;14.32;87.65;96194.25;5029529;28;20029;-59
2022/05/16 05:32:50;;;;;;;4.38;3.97;;;;;;;14.41;87.53;96189.03;5029126;28;20112;-59
2022/05/16 05:35:16;;;;;;;10.55;4.35;;;;;;;14.49;87.25;96197.03;5022626;28;20048;-58
2022/05/16 05:37:42;;;;;;;5.25;4.40;;;;;;;14.58;87.22;96196.09;5020353;28;20028;-59
2022/05/16 05:40:09;;;;;;;9.38;4.45;;;;;;;14.84;85.96;96202.44;5022333;28;20033;-59
2022/05/16 05:42:35;;;;;;;5.63;4.03;;;;;;;14.99;85.55;96197.41;5026143;28;20108;-59
2022/05/16 05:45:01;;;;;;;5.63;4.82;;;;;;;15.14;85.13;96195.81;5029414;28;20121;-58
2022/05/16 05:47:27;;;;;;;8.27;4.65;;;;;;;15.30;84.12;96205.69;5024785;28;20559;-59
2022/05/16 05:49:53;;;;;;;6.88;4.85;;;;;;;15.55;83.55;96202.28;5009701;28;20062;-58
2022/05/16 05:52:18;;;;;;;5.03;4.15;;;;;;;15.77;81.35;96206.16;5009428;28;20505;-58
2022/05/16 05:54:45;;;;;;;5.00;3.97;;;;;;;15.93;81.06;96205.41;5009467;28;20026;-59
2022/05/16 05:57:10;;;;;;;5.10;4.60;;;;;;;15.98;81.27;96205.72;5009478;28;20095;-59
2022/05/16 05:59:36;;;;;;;4.55;4.18;;;;;;;16.10;79.99;96202.78;5009301;28;20045;-59
2022/05/16 06:02:02;;;;;;;4.47;4.07;;;;;;;16.25;79.12;96200.28;5009789;28;20037;-59
2022/05/16 06:04:27;;;;;;;7.70;3.80;;;;;;;16.40;79.84;96205.78;5009420;28;20024;-59
2022/05/16 06:06:53;;;;;;;6.30;4.03;;;;;;;16.54;79.39;96199.81;5009491;28;20126;-59
2022/05/16 06:09:18;;;;;;;7.45;3.90;;;;;;;16.63;77.49;96205.94;5009420;28;20138;-59
2022/05/16 06:11:43;;;;;;;4.53;4.13;;;;;;;16.67;78.21;96207.28;5009763;28;20454;-59
2022/05/16 06:14:09;;;;;;;8.73;5.13;;;;;;;16.81;80.05;96194.31;5009408;28;20129;-59
2022/05/16 06:16:34;;;;;;;8.50;3.58;;;;;;;16.86;78.85;96200.75;5009189;28;20457;-59
2022/05/16 06:19:00;;;;;;;6.93;4.57;;;;;;;16.84;78.81;96192.13;5009470;28;20034;-59
2022/05/16 06:21:25;;;;;;;10.30;4.30;;;;;;;16.79;79.08;96190.94;5009315;28;20117;-59
2022/05/16 06:23:51;;;;;;;8.52;4.22;;;;;;;16.86;78.66;96189.31;5009473;28;20022;-59
2022/05/16 06:26:16;;;;;;;6.47;4.05;;;;;;;17.11;78.03;96187.41;5009115;28;20048;-58
2022/05/16 06:28:42;;;;;;;4.78;4.18;;;;;;;17.44;76.99;96187.31;5009098;28;20030;-59
2022/05/16 06:31:07;;;;;;;8.23;3.97;;;;;;;17.77;75.32;96189.00;5009050;28;20375;-59
2022/05/16 06:33:34;;;;;;;8.60;4.13;;;;;;;17.79;72.54;96186.13;5010210;28;20081;-59
2022/05/16 06:36:03;;;;;;;8.48;3.72;;;;;;;17.86;72.81;96189.78;5013320;28;20037;-59
2022/05/16 06:38:32;;;;;;;4.35;3.63;;;;;;;17.84;73.64;96181.94;5013008;28;20033;-59
2022/05/16 06:40:58;;;;;;;5.82;3.75;;;;;;;17.88;71.78;96177.94;5012941;28;20416;-59
2022/05/16 06:43:26;;;;;;;5.30;3.40;;;;;;;17.92;70.76;96182.94;5012843;28;20037;-59
2022/05/16 06:45:53;;;;;;;10.00;3.38;;;;;;;17.96;67.03;96187.69;5012962;28;20030;-59
2022/05/16 06:48:19;;;;;;;4.93;3.58;;;;;;;17.82;68.48;96183.16;5012531;28;20041;-59
2022/05/16 06:50:46;;;;;;;8.80;3.90;;;;;;;17.81;68.17;96186.81;5012900;28;20034;-59
2022/05/16 06:53:17;;;;;;;4.90;3.22;;;;;;;17.78;65.81;96192.47;5012960;28;20076;-59
2022/05/16 06:55:43;;;;;;;5.07;3.72;;;;;;;17.65;67.00;96185.91;5012840;28;20032;-59
2022/05/16 06:58:09;;;;;;;5.47;3.80;;;;;;;17.64;66.83;96189.56;5012551;28;20030;-59
2022/05/16 07:00:34;;;;;;;6.13;3.72;;;;;;;17.75;68.48;96199.81;5011318;28;20049;-59
2022/05/16 07:03:00;;;;;;;8.85;4.50;;;;;;;17.76;68.64;96209.44;5012756;28;20033;-59
2022/05/16 07:05:25;;;;;;;8.68;4.72;;;;;;;17.90;66.40;96202.56;5012376;28;20568;-59
2022/05/16 07:07:51;;;;;;;6.38;3.78;;;;;;;17.78;66.96;96208.44;5012589;28;20537;-59
2022/05/16 07:10:17;;;;;;;6.75;4.28;;;;;;;17.80;65.62;96211.78;5012473;28;20026;-59
2022/05/16 07:12:42;;;;;;;10.57;3.92;;;;;;;17.66;67.78;96216.84;5012355;28;20029;-59
2022/05/16 07:15:08;;;;;;;10.25;3.97;;;;;;;17.79;67.81;96226.06;5012378;28;20092;-59
2022/05/16 07:17:33;;;;;;;8.63;3.95;;;;;;;17.76;67.79;96229.94;5012507;28;20072;-59
2022/05/16 07:19:59;;;;;;;11.68;4.47;;;;;;;17.61;68.34;96240.50;5012319;28;20557;-58
2022/05/16 07:22:25;;;;;;;11.02;4.13;;;;;;;17.67;68.25;96250.44;5039620;28;20036;-59
2022/05/16 07:24:55;;;;;;;7.50;4.05;;;;;;;17.69;69.25;96259.09;5048213;28;20090;-59
2022/05/16 07:30:07;;;;;;;8.00;4.00;;;;;;;17.44;73.82;96267.16;5012078;28;20076;-59
2022/05/16 07:32:43;;;;;;;8.85;4.15;;;;;;;17.45;74.46;96263.50;5012118;28;20036;-59
2022/05/16 07:35:12;;;;;;;7.53;4.25;;;;;;;17.17;76.79;96261.25;5012121;28;20530;-59
2022/05/16 07:37:38;;;;;;;8.52;4.32;;;;;;;16.94;78.05;96252.28;5011877;28;20520;-58
2022/05/16 07:40:07;;;;;;;10.80;4.40;;;;;;;16.85;78.63;96256.78;5012304;28;20038;-59
2022/05/16 07:42:32;;;;;;;4.68;3.80;;;;;;;16.71;77.24;96240.50;5016504;28;20409;-59
2022/05/16 07:44:58;;;;;;;7.22;4.70;;;;;;;16.61;80.48;96231.88;5031027;28;20044;-58
2022/05/16 07:47:24;;;;;;;4.78;4.00;;;;;;;16.56;80.65;96223.53;5031397;28;20061;-59
2022/05/16 07:49:49;;;;;;;7.38;4.50;;;;;;;16.43;81.21;96222.22;5031402;28;20083;-59
2022/05/16 07:52:15;;;;;;;9.40;4.28;;;;;;;16.32;82.28;96215.41;5031486;28;20485;-59
2022/05/16 07:54:40;;;;;;;10.93;4.72;;;;;;;16.25;82.68;96214.41;5031402;28;20028;-59
2022/05/16 07:57:05;;;;;;;7.88;4.95;;;;;;;16.14;83.97;96202.28;5031637;28;20026;-59
2022/05/16 07:59:31;;;;;;;6.50;4.70;;;;;;;16.09;84.43;96198.47;5031177;28;20033;-60
2022/05/16 08:01:56;;;;;;;10.27;4.72;;;;;;;16.14;85.07;96186.34;5031313;28;20030;-59
2022/05/16 08:04:22;;;;;;;7.38;4.82;;;;;;;16.15;88.94;96185.38;5031205;28;20036;-59
2022/05/16 08:06:47;;;;;;;9.05;5.32;;;;;;;16.16;89.05;96172.91;5031199;28;20057;-59
2022/05/16 08:11:57;;;;;;;9.00;4.50;;;;;;;16.33;88.96;96140.03;5031092;28;20132;-59
2022/05/16 08:14:22;;;;;;;7.50;4.70;;;;;;;16.58;88.21;96144.50;5030575;28;20041;-60
2022/05/16 08:16:47;;;;;;;12.82;8.05;;;;;;;16.52;87.99;96146.00;5030735;28;20113;-59
2022/05/16 08:19:13;;;;;;;14.07;8.73;;;;;;;16.51;89.03;96143.50;5030973;28;20033;-59
2022/05/16 08:21:41;;;;;;;17.45;7.97;;;;;;;16.37;89.22;96148.50;5030856;28;20025;-59
2022/05/16 08:24:09;;;;;;;6.38;5.78;;;;;;;16.50;88.99;96153.31;5031151;28;20025;-59
2022/05/16 08:26:35;;;;;;;9.02;5.05;;;;;;;17.14;87.10;96165.81;5030987;28;20030;-59
2022/05/16 08:29:01;;;;;;;6.68;5.40;;;;;;;17.85;81.86;96172.94;5029622;28;20037;-59
2022/05/16 08:31:28;;;;;;;6.53;4.70;;;;;;;17.82;81.04;96185.81;5030652;28;20029;-59
2022/05/16 08:33:55;;;;;;;7.50;5.95;;;;;;;17.75;80.14;96194.47;5030469;28;20076;-59
2022/05/16 08:41:57;;;;;;;10.93;5.85;;;;;;;18.36;80.27;96197.47;5030469;28;20465;-59
2022/05/16 08:44:50;;;;;;;6.80;4.80;;;;;;;18.57;78.65;96192.28;5030327;28;20412;-59
2022/05/16 08:47:24;;;;;;;10.25;4.78;;;;;;;18.53;78.70;96184.81;5030515;28;20053;-60
2022/05/16 08:49:57;;;;;;;5.68;4.68;;;;;;;18.39;77.97;96189.94;5030323;28;20120;-59
2022/05/16 08:52:47;;;;;;;5.07;4.57;;;;;;;18.37;76.05;96183.97;5030331;28;20036;-59
2022/05/16 08:55:33;;;;;;;12.43;5.65;;;;;;;18.54;77.17;96175.81;5030603;28;20025;-59
2022/05/16 08:58:35;;;;;;;5.80;4.85;;;;;;;18.50;75.06;96179.84;5029357;28;20034;-60
2022/05/16 09:01:15;;;;;;;8.05;4.47;;;;;;;18.67;75.37;96178.69;5030068;28;20120;-59
2022/05/16 09:03:57;;;;;;;6.65;4.45;;;;;;;18.67;74.24;96172.53;5030115;28;20029;-59
2022/05/16 09:06:39;;;;;;;5.65;4.70;;;;;;;18.82;75.18;96173.38;5029971;28;20040;-59
2022/05/16 09:09:13;;;;;;;5.35;3.92;;;;;;;19.01;75.28;96165.88;5030028;28;20033;-59
2022/05/16 09:11:44;;;;;;;5.13;4.60;;;;;;;19.33;72.36;96172.69;5030150;28;20504;-60
2022/05/16 09:14:24;;;;;;;8.43;4.20;;;;;;;19.93;69.74;96171.78;5030410;28;20033;-59
2022/05/16 09:17:16;;;;;;;4.57;4.18;;;;;;;20.54;68.05;96177.69;5029896;28;20057;-59
2022/05/16 09:20:00;;;;;;;9.25;4.63;;;;;;;20.90;64.63;96182.09;5021455;28;20412;-60
2022/05/16 09:23:18;;;;;;;5.97;4.82;;;;;;;21.03;64.00;96184.03;5029857;28;20037;-59
2022/05/16 09:25:59;;;;;;;10.13;5.38;;;;;;;20.69;65.86;96186.44;5014538;28;20037;-59
2022/05/16 09:28:34;;;;;;;6.03;4.25;;;;;;;20.26;68.00;96191.81;5028506;28;20057;-59
2022/05/16 09:31:10;;;;;;;5.30;4.80;;;;;;;20.02;67.54;96194.69;5029749;28;20128;-59
2022/05/16 09:33:42;;;;;;;8.15;4.20;;;;;;;19.75;66.75;96197.03;5029503;28;20063;-59
2022/05/16 09:36:12;;;;;;;6.35;4.45;;;;;;;19.84;65.85;96203.09;5029790;28;20039;-59
2022/05/16 09:38:43;;;;;;;6.57;5.00;;;;;;;19.27;68.66;96194.78;5029756;28;20025;-59
2022/05/16 09:41:33;;;;;;;5.90;4.70;;;;;;;19.27;69.53;96201.97;5030155;28;20052;-59
2022/05/16 09:44:26;;;;;;;5.78;4.45;;;;;;;19.50;69.23;96206.38;5026084;28;20397;-58
2022/05/16 09:47:21;;;;;;;8.73;4.68;;;;;;;19.82;65.16;96210.47;5029489;28;20036;-59
2022/05/16 09:50:02;;;;;;;7.05;4.85;;;;;;;19.55;66.52;96206.63;5009626;28;20041;-59
2022/05/16 09:52:32;;;;;;;5.75;3.97;;;;;;;19.68;66.80;96201.47;5008275;28;20468;-59
2022/05/16 09:55:03;;;;;;;9.23;5.03;;;;;;;19.95;67.37;96199.13;5009605;28;20509;-59
2022/05/16 09:57:32;;;;;;;8.75;4.32;;;;;;;20.64;64.18;96198.75;5008212;28;20060;-59
2022/05/16 10:00:15;;;;;;;5.57;3.95;;;;;;;21.10;59.66;96195.59;5009382;28;20064;-59
2022/05/16 10:02:42;;;;;;;4.15;3.83;;;;;;;21.21;61.53;96194.22;5009866;28;20022;-59
2022/05/16 10:05:19;;;;;;;5.18;4.03;;;;;;;21.73;60.74;96189.38;5009635;28;20033;-59
2022/05/16 10:08:13;;;;;;;6.25;3.88;;;;;;;21.69;58.99;96190.78;5009545;28;20087;-59
2022/05/16 10:10:42;;;;;;;4.22;3.60;;;;;;;21.47;59.86;96185.53;5013878;28;20137;-59
2022/05/16 10:13:08;;;;;;;4.93;3.75;;;;;;;21.65;56.71;96191.38;5013728;28;20050;-59
2022/05/16 10:15:35;;;;;;;6.18;3.95;;;;;;;21.19;58.67;96193.59;5013397;28;20366;-59
2022/05/16 10:18:04;;;;;;;7.35;3.55;;;;;;;21.77;54.36;96186.28;5013509;28;20432;-60
2022/05/16 10:20:39;;;;;;;7.22;3.80;;;;;;;21.92;53.62;96192.31;5013433;28;20033;-59
2022/05/16 10:23:19;;;;;;;3.92;3.15;;;;;;;21.81;53.89;96187.56;5013447;28;20065;-59
2022/05/16 10:25:47;;;;;;;6.78;3.75;;;;;;;22.27;52.06;96189.53;5013344;28;20026;-60
2022/05/16 10:28:20;;;;;;;6.97;3.28;;;;;;;21.84;54.87;96184.47;5012356;28;20677;-59
2022/05/16 10:33:35;;;;;;;5.22;3.30;;;;;;;22.43;52.13;96188.28;5013428;28;20037;-59
2022/05/16 10:36:20;;;;;;;6.75;3.22;;;;;;;22.87;50.50;96178.00;5011726;28;20489;-59
2022/05/16 10:38:52;;;;;;;5.90;3.70;;;;;;;22.89;50.41;96180.47;5011937;28;20065;-59
2022/05/16 10:41:27;;;;;;;6.53;3.40;;;;;;;23.02;50.02;96176.94;5013074;28;20034;-59
2022/05/16 10:43:52;;;;;;;;;;;;;;;23.59;49.15;96168.38;5013475;28;20145;-59
2022/05/16 10:46:26;;;;;;;5.53;3.43;;;;;;;24.05;46.32;96160.31;5013057;28;20441;-59
2022/05/16 10:48:59;;;;;;;4.03;3.37;;;;;;;24.32;46.97;96158.28;5026403;28;20407;-59
2022/05/16 10:51:38;;;;;;;6.38;3.40;;;;;;;25.10;47.44;96150.81;5032542;28;20057;-59
2022/05/16 10:54:10;;;;;;;7.05;3.25;;;;;;;25.44;44.56;96153.94;5032753;28;20037;-59
2022/05/16 10:56:50;;;;;;;4.47;2.92;;;;;;;25.46;43.10;96146.44;5032445;28;20492;-59
2022/05/16 10:59:52;;;;;;;3.67;3.10;;;;;;;26.05;42.92;96144.28;5032364;28;20080;-59
2022/05/16 11:02:17;;;;;;;5.53;2.92;;;;;;;26.15;43.58;96136.44;5032446;28;20056;-59
2022/05/16 11:04:56;;;;;;;4.03;2.57;;;;;;;26.36;41.11;96135.13;5032611;28;20052;-59
2022/05/16 11:07:37;;;;;;;3.83;3.10;;;;;;;26.67;40.70;96129.66;5032400;28;20268;-58
2022/05/16 11:10:32;;;;;;;10.20;3.80;;;;;;;26.30;41.12;96122.53;5032176;28;20116;-59
2022/05/16 11:13:17;;;;;;;3.35;2.90;;;;;;;26.77;41.56;96123.66;5032291;28;20420;-59
2022/05/16 11:15:52;;;;;;;6.43;3.17;;;;;;;27.31;41.54;96107.31;5032419;28;20025;-59
2022/05/16 11:18:20;;;;;;;6.10;3.30;;;;;;;26.92;41.40;96107.03;5032169;28;20032;-59
2022/05/16 11:20:58;;;;;;;4.80;3.20;;;;;;;27.20;41.58;96122.50;5031019;28;20034;-59
2022/05/16 11:23:35;;;;;;;3.85;3.00;;;;;;;27.53;41.95;96115.63;5031996;28;20048;-59
2022/05/16 11:26:23;;;;;;;5.15;2.85;;;;;;;27.63;39.37;96109.59;5032129;28;20447;-59
2022/05/16 11:29:20;;;;;;;5.68;2.78;;;;;;;27.91;38.10;96116.06;5026247;28;20045;-59
2022/05/16 11:32:11;;;;;;;3.47;2.60;;;;;;;28.06;36.91;96106.59;5032040;28;20034;-59
2022/05/16 11:34:55;;;;;;;3.55;3.03;;;;;;;27.50;38.59;96109.81;5015531;28;20049;-58
2022/05/16 11:37:26;;;;;;;3.97;2.53;;;;;;;27.66;39.66;96101.00;5031740;28;20033;-58
2022/05/16 11:40:02;;;;;;;7.18;2.70;;;;;;;27.85;38.66;96107.03;5031784;28;20025;-59
2022/05/16 11:43:03;;;;;;;7.50;3.20;;;;;;;27.70;38.66;96104.03;5031506;28;20021;-59
2022/05/16 11:45:33;;;;;;;5.88;2.90;;;;;;;27.59;40.77;96103.03;5028299;28;20042;-59
2022/05/16 11:48:08;;;;;;;5.18;2.88;;;;;;;27.97;36.35;96096.16;5031342;28;20027;-59
2022/05/16 11:50:36;;;;;;;7.60;3.38;;;;;;;28.35;36.00;96099.25;5031376;28;20083;-59
2022/05/16 11:53:20;;;;;;;5.45;2.67;;;;;;;27.70;38.91;96096.75;5031503;28;20037;-59
2022/05/16 12:01:36;;;;;;;7.38;3.22;;;;;;;28.72;37.27;96079.78;5031814;28;20511;-59
2022/05/16 12:04:11;;;;;;;4.13;2.47;;;;;;;28.94;37.32;96081.72;5031269;28;20489;-59
2022/05/16 12:06:39;;;;;;;3.65;2.90;;;;;;;29.08;35.93;96079.50;5031058;28;20514;-59
2022/05/16 12:09:23;;;;;;;4.95;2.70;;;;;;;28.84;36.29;96079.69;5031216;28;20029;-59
2022/05/16 12:12:00;;;;;;;4.37;2.50;;;;;;;28.97;36.57;96075.00;5031378;28;20033;-59
2022/05/16 12:14:50;;;;;;;4.75;2.45;;;;;;;28.86;35.52;96066.75;5031200;28;20112;-59
2022/05/16 12:17:19;;;;;;;5.10;2.63;;;;;;;29.10;37.20;96068.41;5031008;28;20017;-59
2022/05/16 12:19:50;;;;;;;5.63;2.72;;;;;;;28.62;35.57;96071.50;5030935;28;20084;-59